EmailTwitter


Observations de surface / France / LFBD (07510)

Régions: Québec | Canada | États-Unis | Europe | France | UK | Ailleurs
Station
Affichage
Infos & localisation pour LFBD (07510) | Aide pour décoder les METARs

Observations prises le 2018-01-23 à 05H30 UTC à BORDEAUX/MERIGNA, FR (LFBD)

Obstacle(s) à la visibilité: brume.

Température: 9.0 Celsius

Point de rosée: 9.0 Celsius

Humidité relative: 100%

Vents: Sud à 7 km/h ou 4 noeuds.

Pression au niveau moyen de la mer: 102.80 kilopascals.

Visibilité horizontale: 1.49 milles terrestres ou 2.39 kilomètres.

Observation METAR:

LFBD 230530Z AUTO 17004KT 2400 BR VV/// 09/09 Q1028 TEMPO 0400 FG=